sensor_id;sensor_type;location;lat;lon;timestamp;P1;durP1;ratioP1;P2;durP2;ratioP2
71610;SDS011;59459;51.172;6.682;2024-01-15T00:01:41;46.60;;;13.30;;
71610;SDS011;59459;51.172;6.682;2024-01-15T00:04:07;37.75;;;12.48;;
71610;SDS011;59459;51.172;6.682;2024-01-15T00:06:32;30.43;;;10.90;;
71610;SDS011;59459;51.172;6.682;2024-01-15T00:08:58;33.65;;;11.30;;
71610;SDS011;59459;51.172;6.682;2024-01-15T00:11:23;33.57;;;12.40;;
71610;SDS011;59459;51.172;6.682;2024-01-15T00:13:48;40.63;;;11.10;;
71610;SDS011;59459;51.172;6.682;2024-01-15T00:16:14;35.27;;;12.77;;
71610;SDS011;59459;51.172;6.682;2024-01-15T00:18:39;35.70;;;11.47;;
71610;SDS011;59459;51.172;6.682;2024-01-15T00:21:04;42.63;;;12.80;;
71610;SDS011;59459;51.172;6.682;2024-01-15T00:23:29;42.50;;;12.77;;
71610;SDS011;59459;51.172;6.682;2024-01-15T00:25:55;38.33;;;12.27;;
71610;SDS011;59459;51.172;6.682;2024-01-15T00:28:21;36.60;;;11.77;;
71610;SDS011;59459;51.172;6.682;2024-01-15T00:30:46;39.30;;;11.70;;
71610;SDS011;59459;51.172;6.682;2024-01-15T00:33:11;41.97;;;13.63;;
71610;SDS011;59459;51.172;6.682;2024-01-15T00:35:37;35.53;;;12.55;;
71610;SDS011;59459;51.172;6.682;2024-01-15T00:38:02;41.60;;;12.53;;
71610;SDS011;59459;51.172;6.682;2024-01-15T00:40:27;39.60;;;11.57;;
71610;SDS011;59459;51.172;6.682;2024-01-15T00:42:53;37.33;;;12.33;;
71610;SDS011;59459;51.172;6.682;2024-01-15T00:45:18;38.90;;;12.40;;
71610;SDS011;59459;51.172;6.682;2024-01-15T00:47:43;26.67;;;10.57;;
71610;SDS011;59459;51.172;6.682;2024-01-15T00:50:09;39.83;;;11.17;;
71610;SDS011;59459;51.172;6.682;2024-01-15T00:52:34;41.97;;;12.90;;
71610;SDS011;59459;51.172;6.682;2024-01-15T00:54:59;39.37;;;13.27;;
71610;SDS011;59459;51.172;6.682;2024-01-15T00:57:25;35.70;;;11.37;;
71610;SDS011;59459;51.172;6.682;2024-01-15T00:59:50;34.70;;;11.40;;
71610;SDS011;59459;51.172;6.682;2024-01-15T01:02:15;41.07;;;12.87;;
71610;SDS011;59459;51.172;6.682;2024-01-15T01:04:40;33.17;;;12.60;;
71610;SDS011;59459;51.172;6.682;2024-01-15T01:07:05;35.47;;;12.83;;
71610;SDS011;59459;51.172;6.682;2024-01-15T01:09:31;40.43;;;12.33;;
71610;SDS011;59459;51.172;6.682;2024-01-15T01:11:56;40.90;;;13.13;;
71610;SDS011;59459;51.172;6.682;2024-01-15T01:14:21;43.73;;;14.07;;
71610;SDS011;59459;51.172;6.682;2024-01-15T01:16:47;49.07;;;15.67;;
71610;SDS011;59459;51.172;6.682;2024-01-15T01:19:12;44.87;;;13.80;;
71610;SDS011;59459;51.172;6.682;2024-01-15T01:21:37;42.60;;;14.63;;
71610;SDS011;59459;51.172;6.682;2024-01-15T01:24:02;43.27;;;13.87;;
71610;SDS011;59459;51.172;6.682;2024-01-15T01:26:28;34.00;;;11.37;;
71610;SDS011;59459;51.172;6.682;2024-01-15T01:28:53;36.37;;;11.97;;
71610;SDS011;59459;51.172;6.682;2024-01-15T01:31:18;35.27;;;12.53;;
71610;SDS011;59459;51.172;6.682;2024-01-15T01:33:43;35.47;;;13.60;;
71610;SDS011;59459;51.172;6.682;2024-01-15T01:36:09;36.63;;;12.73;;
71610;SDS011;59459;51.172;6.682;2024-01-15T01:38:34;38.70;;;12.85;;
71610;SDS011;59459;51.172;6.682;2024-01-15T01:40:59;44.60;;;15.07;;
71610;SDS011;59459;51.172;6.682;2024-01-15T01:43:25;35.70;;;12.93;;
71610;SDS011;59459;51.172;6.682;2024-01-15T01:45:50;36.83;;;11.43;;
71610;SDS011;59459;51.172;6.682;2024-01-15T01:48:15;34.60;;;12.87;;
71610;SDS011;59459;51.172;6.682;2024-01-15T01:50:40;37.90;;;12.90;;
71610;SDS011;59459;51.172;6.682;2024-01-15T01:53:06;37.90;;;12.93;;
71610;SDS011;59459;51.172;6.682;2024-01-15T01:55:31;36.20;;;13.53;;
71610;SDS011;59459;51.172;6.682;2024-01-15T01:57:58;33.87;;;11.43;;
71610;SDS011;59459;51.172;6.682;2024-01-15T02:00:23;33.40;;;11.40;;
71610;SDS011;59459;51.172;6.682;2024-01-15T02:02:49;35.33;;;10.50;;
71610;SDS011;59459;51.172;6.682;2024-01-15T02:05:14;39.10;;;12.77;;
71610;SDS011;59459;51.172;6.682;2024-01-15T02:07:43;35.03;;;11.02;;
71610;SDS011;59459;51.172;6.682;2024-01-15T02:10:09;38.10;;;12.60;;
71610;SDS011;59459;51.172;6.682;2024-01-15T02:12:34;35.72;;;11.25;;
71610;SDS011;59459;51.172;6.682;2024-01-15T02:15:00;32.90;;;10.80;;
71610;SDS011;59459;51.172;6.682;2024-01-15T02:17:25;30.50;;;11.27;;
71610;SDS011;59459;51.172;6.682;2024-01-15T02:19:50;38.83;;;12.77;;
71610;SDS011;59459;51.172;6.682;2024-01-15T02:22:15;35.67;;;11.60;;
71610;SDS011;59459;51.172;6.682;2024-01-15T02:24:41;39.60;;;12.10;;
71610;SDS011;59459;51.172;6.682;2024-01-15T02:27:06;34.83;;;11.73;;
71610;SDS011;59459;51.172;6.682;2024-01-15T02:29:31;34.03;;;10.10;;
71610;SDS011;59459;51.172;6.682;2024-01-15T02:31:57;31.43;;;11.13;;
71610;SDS011;59459;51.172;6.682;2024-01-15T02:34:22;34.93;;;12.87;;
71610;SDS011;59459;51.172;6.682;2024-01-15T02:36:47;37.83;;;11.67;;
71610;SDS011;59459;51.172;6.682;2024-01-15T02:39:12;35.43;;;12.43;;
71610;SDS011;59459;51.172;6.682;2024-01-15T02:41:38;32.37;;;10.70;;
71610;SDS011;59459;51.172;6.682;2024-01-15T02:44:03;30.83;;;11.00;;
71610;SDS011;59459;51.172;6.682;2024-01-15T02:46:28;33.93;;;12.13;;
71610;SDS011;59459;51.172;6.682;2024-01-15T02:48:53;32.70;;;10.77;;
71610;SDS011;59459;51.172;6.682;2024-01-15T02:51:19;33.53;;;10.90;;
71610;SDS011;59459;51.172;6.682;2024-01-15T02:53:44;29.27;;;10.10;;
71610;SDS011;59459;51.172;6.682;2024-01-15T02:56:10;32.13;;;10.88;;
71610;SDS011;59459;51.172;6.682;2024-01-15T02:58:35;34.03;;;11.30;;
71610;SDS011;59459;51.172;6.682;2024-01-15T03:01:03;26.40;;;10.30;;
71610;SDS011;59459;51.172;6.682;2024-01-15T03:03:28;32.05;;;10.30;;
71610;SDS011;59459;51.172;6.682;2024-01-15T03:05:53;27.77;;;9.77;;
71610;SDS011;59459;51.172;6.682;2024-01-15T03:08:19;30.50;;;9.20;;
71610;SDS011;59459;51.172;6.682;2024-01-15T03:10:44;23.37;;;8.80;;
71610;SDS011;59459;51.172;6.682;2024-01-15T03:13:09;26.47;;;8.50;;
71610;SDS011;59459;51.172;6.682;2024-01-15T03:15:34;28.60;;;10.07;;
71610;SDS011;59459;51.172;6.682;2024-01-15T03:17:59;25.30;;;9.73;;
71610;SDS011;59459;51.172;6.682;2024-01-15T03:20:25;25.83;;;10.13;;
71610;SDS011;59459;51.172;6.682;2024-01-15T03:22:50;26.60;;;9.60;;
71610;SDS011;59459;51.172;6.682;2024-01-15T03:25:15;21.50;;;8.77;;
71610;SDS011;59459;51.172;6.682;2024-01-15T03:27:40;27.73;;;11.00;;
71610;SDS011;59459;51.172;6.682;2024-01-15T03:30:06;27.97;;;9.27;;
71610;SDS011;59459;51.172;6.682;2024-01-15T03:32:31;27.10;;;9.90;;
71610;SDS011;59459;51.172;6.682;2024-01-15T03:34:56;29.07;;;10.63;;
71610;SDS011;59459;51.172;6.682;2024-01-15T03:37:22;26.55;;;9.73;;
71610;SDS011;59459;51.172;6.682;2024-01-15T03:39:47;29.10;;;10.50;;
71610;SDS011;59459;51.172;6.682;2024-01-15T03:42:12;28.23;;;8.83;;
71610;SDS011;59459;51.172;6.682;2024-01-15T03:44:39;31.90;;;11.35;;
71610;SDS011;59459;51.172;6.682;2024-01-15T03:47:04;25.20;;;8.90;;
71610;SDS011;59459;51.172;6.682;2024-01-15T03:49:29;29.97;;;10.67;;
71610;SDS011;59459;51.172;6.682;2024-01-15T03:51:55;29.33;;;10.33;;
71610;SDS011;59459;51.172;6.682;2024-01-15T03:54:20;27.17;;;9.87;;
71610;SDS011;59459;51.172;6.682;2024-01-15T03:56:45;31.33;;;9.03;;
71610;SDS011;59459;51.172;6.682;2024-01-15T03:59:10;30.97;;;9.37;;
71610;SDS011;59459;51.172;6.682;2024-01-15T04:01:35;26.40;;;9.83;;
71610;SDS011;59459;51.172;6.682;2024-01-15T04:04:01;28.53;;;9.97;;
71610;SDS011;59459;51.172;6.682;2024-01-15T04:06:26;28.30;;;9.17;;
71610;SDS011;59459;51.172;6.682;2024-01-15T04:08:51;32.77;;;8.90;;
71610;SDS011;59459;51.172;6.682;2024-01-15T04:11:16;20.80;;;7.57;;
71610;SDS011;59459;51.172;6.682;2024-01-15T04:13:41;26.10;;;7.93;;
71610;SDS011;59459;51.172;6.682;2024-01-15T04:16:07;25.17;;;8.60;;
71610;SDS011;59459;51.172;6.682;2024-01-15T04:18:32;24.17;;;7.73;;
71610;SDS011;59459;51.172;6.682;2024-01-15T04:20:57;23.07;;;7.17;;
71610;SDS011;59459;51.172;6.682;2024-01-15T04:23:22;19.23;;;7.17;;
71610;SDS011;59459;51.172;6.682;2024-01-15T04:25:48;22.23;;;7.80;;
71610;SDS011;59459;51.172;6.682;2024-01-15T04:28:13;25.07;;;7.93;;
71610;SDS011;59459;51.172;6.682;2024-01-15T04:30:38;20.77;;;8.40;;
71610;SDS011;59459;51.172;6.682;2024-01-15T04:33:03;17.27;;;7.23;;
71610;SDS011;59459;51.172;6.682;2024-01-15T04:35:29;23.10;;;9.60;;
71610;SDS011;59459;51.172;6.682;2024-01-15T04:37:54;23.38;;;9.20;;
71610;SDS011;59459;51.172;6.682;2024-01-15T04:40:20;25.33;;;7.87;;
71610;SDS011;59459;51.172;6.682;2024-01-15T04:42:45;22.03;;;7.53;;
71610;SDS011;59459;51.172;6.682;2024-01-15T04:45:13;23.80;;;7.68;;
71610;SDS011;59459;51.172;6.682;2024-01-15T04:47:38;22.80;;;7.90;;
71610;SDS011;59459;51.172;6.682;2024-01-15T04:50:04;21.53;;;7.90;;
71610;SDS011;59459;51.172;6.682;2024-01-15T04:52:29;19.38;;;7.45;;
71610;SDS011;59459;51.172;6.682;2024-01-15T04:54:54;21.83;;;7.87;;
71610;SDS011;59459;51.172;6.682;2024-01-15T04:57:20;16.47;;;6.70;;
71610;SDS011;59459;51.172;6.682;2024-01-15T04:59:45;22.23;;;7.10;;
71610;SDS011;59459;51.172;6.682;2024-01-15T05:02:10;21.97;;;7.37;;
71610;SDS011;59459;51.172;6.682;2024-01-15T05:04:35;21.50;;;7.00;;
71610;SDS011;59459;51.172;6.682;2024-01-15T05:07:00;15.47;;;5.33;;
71610;SDS011;59459;51.172;6.682;2024-01-15T05:09:26;16.90;;;5.73;;
71610;SDS011;59459;51.172;6.682;2024-01-15T05:11:51;17.77;;;7.20;;
71610;SDS011;59459;51.172;6.682;2024-01-15T05:14:16;21.27;;;6.93;;
71610;SDS011;59459;51.172;6.682;2024-01-15T05:16:48;16.60;;;6.30;;
71610;SDS011;59459;51.172;6.682;2024-01-15T05:19:13;20.98;;;6.18;;
71610;SDS011;59459;51.172;6.682;2024-01-15T05:21:38;19.93;;;6.77;;
71610;SDS011;59459;51.172;6.682;2024-01-15T05:24:04;19.63;;;6.83;;
71610;SDS011;59459;51.172;6.682;2024-01-15T05:26:29;20.57;;;6.83;;
71610;SDS011;59459;51.172;6.682;2024-01-15T05:28:54;22.10;;;6.80;;
71610;SDS011;59459;51.172;6.682;2024-01-15T05:31:19;21.00;;;7.33;;
71610;SDS011;59459;51.172;6.682;2024-01-15T05:33:44;15.63;;;4.80;;
71610;SDS011;59459;51.172;6.682;2024-01-15T05:36:10;17.77;;;7.13;;
71610;SDS011;59459;51.172;6.682;2024-01-15T05:38:35;18.37;;;5.83;;
71610;SDS011;59459;51.172;6.682;2024-01-15T05:41:00;20.90;;;6.37;;
71610;SDS011;59459;51.172;6.682;2024-01-15T05:43:25;20.47;;;6.40;;
71610;SDS011;59459;51.172;6.682;2024-01-15T05:45:51;14.17;;;5.50;;
71610;SDS011;59459;51.172;6.682;2024-01-15T05:48:16;18.60;;;5.37;;
71610;SDS011;59459;51.172;6.682;2024-01-15T05:50:41;13.87;;;6.10;;
71610;SDS011;59459;51.172;6.682;2024-01-15T05:53:06;15.37;;;5.93;;
71610;SDS011;59459;51.172;6.682;2024-01-15T05:55:31;14.67;;;5.93;;
71610;SDS011;59459;51.172;6.682;2024-01-15T05:57:57;16.17;;;6.00;;
71610;SDS011;59459;51.172;6.682;2024-01-15T06:00:22;16.87;;;6.10;;
71610;SDS011;59459;51.172;6.682;2024-01-15T06:02:47;20.90;;;5.97;;
71610;SDS011;59459;51.172;6.682;2024-01-15T06:05:12;20.43;;;5.57;;
71610;SDS011;59459;51.172;6.682;2024-01-15T06:07:38;20.43;;;6.60;;
71610;SDS011;59459;51.172;6.682;2024-01-15T06:10:03;20.57;;;6.20;;
71610;SDS011;59459;51.172;6.682;2024-01-15T06:12:29;15.60;;;6.27;;
71610;SDS011;59459;51.172;6.682;2024-01-15T06:14:55;14.90;;;5.78;;
71610;SDS011;59459;51.172;6.682;2024-01-15T06:17:20;15.30;;;5.67;;
71610;SDS011;59459;51.172;6.682;2024-01-15T06:19:45;13.00;;;5.40;;
71610;SDS011;59459;51.172;6.682;2024-01-15T06:22:10;18.53;;;5.77;;
71610;SDS011;59459;51.172;6.682;2024-01-15T06:24:36;15.57;;;5.73;;
71610;SDS011;59459;51.172;6.682;2024-01-15T06:27:01;15.00;;;4.83;;
71610;SDS011;59459;51.172;6.682;2024-01-15T06:29:26;15.07;;;5.53;;
71610;SDS011;59459;51.172;6.682;2024-01-15T06:31:52;13.97;;;5.27;;
71610;SDS011;59459;51.172;6.682;2024-01-15T06:34:17;17.13;;;5.40;;
71610;SDS011;59459;51.172;6.682;2024-01-15T06:36:43;16.27;;;5.07;;
71610;SDS011;59459;51.172;6.682;2024-01-15T06:39:08;13.03;;;5.67;;
71610;SDS011;59459;51.172;6.682;2024-01-15T06:41:35;13.80;;;5.30;;
71610;SDS011;59459;51.172;6.682;2024-01-15T06:44:00;15.35;;;6.35;;
71610;SDS011;59459;51.172;6.682;2024-01-15T06:46:26;12.03;;;5.30;;
71610;SDS011;59459;51.172;6.682;2024-01-15T06:48:51;18.40;;;6.10;;
71610;SDS011;59459;51.172;6.682;2024-01-15T06:51:16;13.53;;;6.13;;
71610;SDS011;59459;51.172;6.682;2024-01-15T06:53:41;17.10;;;5.63;;
71610;SDS011;59459;51.172;6.682;2024-01-15T06:56:07;14.90;;;5.90;;
71610;SDS011;59459;51.172;6.682;2024-01-15T06:58:32;17.60;;;5.57;;
71610;SDS011;59459;51.172;6.682;2024-01-15T07:00:58;18.03;;;7.00;;
71610;SDS011;59459;51.172;6.682;2024-01-15T07:03:23;16.85;;;7.38;;
71610;SDS011;59459;51.172;6.682;2024-01-15T07:05:48;18.83;;;7.73;;
71610;SDS011;59459;51.172;6.682;2024-01-15T07:08:13;16.83;;;7.30;;
71610;SDS011;59459;51.172;6.682;2024-01-15T07:10:39;18.87;;;7.27;;
71610;SDS011;59459;51.172;6.682;2024-01-15T07:13:04;15.30;;;6.67;;
71610;SDS011;59459;51.172;6.682;2024-01-15T07:15:30;20.38;;;7.60;;
71610;SDS011;59459;51.172;6.682;2024-01-15T07:17:55;18.30;;;6.70;;
71610;SDS011;59459;51.172;6.682;2024-01-15T07:20:21;20.33;;;7.20;;
71610;SDS011;59459;51.172;6.682;2024-01-15T07:22:46;20.77;;;7.03;;
71610;SDS011;59459;51.172;6.682;2024-01-15T07:25:12;17.20;;;6.87;;
71610;SDS011;59459;51.172;6.682;2024-01-15T07:27:37;16.50;;;6.93;;
71610;SDS011;59459;51.172;6.682;2024-01-15T07:30:03;26.40;;;9.30;;
71610;SDS011;59459;51.172;6.682;2024-01-15T07:32:30;21.17;;;8.18;;
71610;SDS011;59459;51.172;6.682;2024-01-15T07:34:56;20.38;;;7.57;;
71610;SDS011;59459;51.172;6.682;2024-01-15T07:37:21;24.20;;;8.33;;
71610;SDS011;59459;51.172;6.682;2024-01-15T07:39:48;20.83;;;7.60;;
71610;SDS011;59459;51.172;6.682;2024-01-15T07:42:13;20.33;;;7.83;;
71610;SDS011;59459;51.172;6.682;2024-01-15T07:44:38;21.73;;;7.37;;
71610;SDS011;59459;51.172;6.682;2024-01-15T07:47:03;21.57;;;7.93;;
71610;SDS011;59459;51.172;6.682;2024-01-15T07:49:29;21.03;;;7.93;;
71610;SDS011;59459;51.172;6.682;2024-01-15T07:51:54;20.77;;;7.93;;
71610;SDS011;59459;51.172;6.682;2024-01-15T07:54:19;22.10;;;8.63;;
71610;SDS011;59459;51.172;6.682;2024-01-15T07:56:54;19.87;;;8.20;;
71610;SDS011;59459;51.172;6.682;2024-01-15T07:59:19;18.15;;;7.82;;
71610;SDS011;59459;51.172;6.682;2024-01-15T08:01:44;25.03;;;8.60;;
71610;SDS011;59459;51.172;6.682;2024-01-15T08:04:10;22.70;;;8.57;;
71610;SDS011;59459;51.172;6.682;2024-01-15T08:06:37;28.90;;;10.93;;
71610;SDS011;59459;51.172;6.682;2024-01-15T08:09:02;24.77;;;9.13;;
71610;SDS011;59459;51.172;6.682;2024-01-15T08:11:29;25.93;;;9.53;;
71610;SDS011;59459;51.172;6.682;2024-01-15T08:13:54;24.63;;;10.23;;
71610;SDS011;59459;51.172;6.682;2024-01-15T08:16:19;28.17;;;10.30;;
71610;SDS011;59459;51.172;6.682;2024-01-15T08:18:44;29.93;;;9.63;;
71610;SDS011;59459;51.172;6.682;2024-01-15T08:21:10;29.33;;;9.80;;
71610;SDS011;59459;51.172;6.682;2024-01-15T08:23:35;20.53;;;8.47;;
71610;SDS011;59459;51.172;6.682;2024-01-15T08:26:00;24.43;;;9.10;;
71610;SDS011;59459;51.172;6.682;2024-01-15T08:28:25;29.43;;;10.20;;
71610;SDS011;59459;51.172;6.682;2024-01-15T08:30:50;23.57;;;9.07;;
71610;SDS011;59459;51.172;6.682;2024-01-15T08:33:16;25.53;;;9.67;;
71610;SDS011;59459;51.172;6.682;2024-01-15T08:35:41;22.80;;;7.70;;
71610;SDS011;59459;51.172;6.682;2024-01-15T08:38:06;24.13;;;9.57;;
71610;SDS011;59459;51.172;6.682;2024-01-15T08:40:31;20.93;;;8.77;;
71610;SDS011;59459;51.172;6.682;2024-01-15T08:42:56;20.10;;;7.90;;
71610;SDS011;59459;51.172;6.682;2024-01-15T08:45:22;24.43;;;8.87;;
71610;SDS011;59459;51.172;6.682;2024-01-15T08:47:48;23.38;;;9.40;;
71610;SDS011;59459;51.172;6.682;2024-01-15T08:50:13;26.17;;;9.80;;
71610;SDS011;59459;51.172;6.682;2024-01-15T08:52:38;21.00;;;7.77;;
71610;SDS011;59459;51.172;6.682;2024-01-15T08:55:03;22.50;;;8.87;;
71610;SDS011;59459;51.172;6.682;2024-01-15T08:57:29;20.90;;;8.60;;
71610;SDS011;59459;51.172;6.682;2024-01-15T08:59:54;24.83;;;8.10;;
71610;SDS011;59459;51.172;6.682;2024-01-15T09:02:20;27.63;;;9.00;;
71610;SDS011;59459;51.172;6.682;2024-01-15T09:04:45;25.63;;;9.10;;
71610;SDS011;59459;51.172;6.682;2024-01-15T09:07:11;26.27;;;9.47;;
71610;SDS011;59459;51.172;6.682;2024-01-15T09:09:36;22.83;;;8.17;;
71610;SDS011;59459;51.172;6.682;2024-01-15T09:12:01;21.60;;;9.57;;
71610;SDS011;59459;51.172;6.682;2024-01-15T09:14:27;26.57;;;10.70;;
71610;SDS011;59459;51.172;6.682;2024-01-15T09:16:54;26.73;;;9.70;;
71610;SDS011;59459;51.172;6.682;2024-01-15T09:19:19;26.70;;;10.37;;
71610;SDS011;59459;51.172;6.682;2024-01-15T09:21:44;28.77;;;9.70;;
71610;SDS011;59459;51.172;6.682;2024-01-15T09:24:09;25.00;;;8.57;;
71610;SDS011;59459;51.172;6.682;2024-01-15T09:26:35;25.43;;;9.10;;
71610;SDS011;59459;51.172;6.682;2024-01-15T09:29:00;27.23;;;9.10;;
71610;SDS011;59459;51.172;6.682;2024-01-15T09:31:26;25.58;;;9.90;;
71610;SDS011;59459;51.172;6.682;2024-01-15T09:33:52;22.05;;;8.50;;
71610;SDS011;59459;51.172;6.682;2024-01-15T09:36:21;20.65;;;8.05;;
71610;SDS011;59459;51.172;6.682;2024-01-15T09:38:46;20.23;;;7.83;;
71610;SDS011;59459;51.172;6.682;2024-01-15T09:41:11;22.10;;;8.60;;
71610;SDS011;59459;51.172;6.682;2024-01-15T09:43:36;20.43;;;8.13;;
71610;SDS011;59459;51.172;6.682;2024-01-15T09:46:03;21.27;;;8.43;;
71610;SDS011;59459;51.172;6.682;2024-01-15T09:48:28;18.83;;;7.53;;
71610;SDS011;59459;51.172;6.682;2024-01-15T09:50:54;17.57;;;7.07;;
71610;SDS011;59459;51.172;6.682;2024-01-15T09:53:19;16.07;;;6.63;;
71610;SDS011;59459;51.172;6.682;2024-01-15T09:55:45;18.73;;;5.40;;
71610;SDS011;59459;51.172;6.682;2024-01-15T09:58:11;13.80;;;5.07;;
71610;SDS011;59459;51.172;6.682;2024-01-15T10:00:37;13.32;;;4.88;;
71610;SDS011;59459;51.172;6.682;2024-01-15T10:03:04;13.88;;;4.63;;
71610;SDS011;59459;51.172;6.682;2024-01-15T10:05:30;11.20;;;4.13;;
71610;SDS011;59459;51.172;6.682;2024-01-15T10:07:55;12.43;;;4.47;;
71610;SDS011;59459;51.172;6.682;2024-01-15T10:10:21;10.98;;;3.75;;
71610;SDS011;59459;51.172;6.682;2024-01-15T10:12:47;12.43;;;4.37;;
71610;SDS011;59459;51.172;6.682;2024-01-15T10:15:12;13.03;;;3.47;;
71610;SDS011;59459;51.172;6.682;2024-01-15T10:17:38;7.83;;;2.83;;
71610;SDS011;59459;51.172;6.682;2024-01-15T10:20:11;10.68;;;2.97;;
71610;SDS011;59459;51.172;6.682;2024-01-15T10:22:39;7.50;;;2.53;;
71610;SDS011;59459;51.172;6.682;2024-01-15T10:25:05;9.63;;;3.20;;
71610;SDS011;59459;51.172;6.682;2024-01-15T10:27:30;10.17;;;2.97;;
71610;SDS011;59459;51.172;6.682;2024-01-15T10:29:58;6.07;;;2.10;;
71610;SDS011;59459;51.172;6.682;2024-01-15T10:32:24;9.05;;;2.42;;
71610;SDS011;59459;51.172;6.682;2024-01-15T10:34:50;7.65;;;2.45;;
71610;SDS011;59459;51.172;6.682;2024-01-15T10:37:17;9.38;;;2.72;;
71610;SDS011;59459;51.172;6.682;2024-01-15T10:39:42;6.80;;;2.00;;
71610;SDS011;59459;51.172;6.682;2024-01-15T10:42:07;6.70;;;1.63;;
71610;SDS011;59459;51.172;6.682;2024-01-15T10:44:33;8.70;;;1.97;;
71610;SDS011;59459;51.172;6.682;2024-01-15T10:46:59;7.23;;;1.90;;
71610;SDS011;59459;51.172;6.682;2024-01-15T10:49:24;7.03;;;2.10;;
71610;SDS011;59459;51.172;6.682;2024-01-15T10:51:52;7.50;;;2.30;;
71610;SDS011;59459;51.172;6.682;2024-01-15T10:54:17;8.07;;;1.90;;
71610;SDS011;59459;51.172;6.682;2024-01-15T10:56:44;7.30;;;2.13;;
71610;SDS011;59459;51.172;6.682;2024-01-15T10:59:10;6.50;;;2.00;;
71610;SDS011;59459;51.172;6.682;2024-01-15T11:01:36;5.07;;;1.40;;
71610;SDS011;59459;51.172;6.682;2024-01-15T11:04:01;6.30;;;1.50;;
71610;SDS011;59459;51.172;6.682;2024-01-15T11:06:27;5.40;;;2.00;;
71610;SDS011;59459;51.172;6.682;2024-01-15T11:08:54;6.93;;;1.85;;
71610;SDS011;59459;51.172;6.682;2024-01-15T11:11:20;4.25;;;1.25;;
71610;SDS011;59459;51.172;6.682;2024-01-15T11:13:49;3.10;;;1.10;;
71610;SDS011;59459;51.172;6.682;2024-01-15T11:16:16;6.40;;;1.40;;
71610;SDS011;59459;51.172;6.682;2024-01-15T11:18:43;10.47;;;1.03;;
71610;SDS011;59459;51.172;6.682;2024-01-15T11:23:42;5.35;;;1.27;;
71610;SDS011;59459;51.172;6.682;2024-01-15T11:26:30;6.97;;;1.73;;
71610;SDS011;59459;51.172;6.682;2024-01-15T11:28:54;12.02;;;2.90;;
71610;SDS011;59459;51.172;6.682;2024-01-15T11:31:20;8.43;;;2.47;;
71610;SDS011;59459;51.172;6.682;2024-01-15T11:33:49;10.07;;;2.90;;
71610;SDS011;59459;51.172;6.682;2024-01-15T11:36:14;8.95;;;2.38;;
71610;SDS011;59459;51.172;6.682;2024-01-15T11:38:40;13.03;;;3.23;;
71610;SDS011;59459;51.172;6.682;2024-01-15T11:41:13;8.67;;;3.13;;
71610;SDS011;59459;51.172;6.682;2024-01-15T11:43:38;12.77;;;3.35;;
71610;SDS011;59459;51.172;6.682;2024-01-15T11:46:04;11.27;;;3.83;;
71610;SDS011;59459;51.172;6.682;2024-01-15T11:48:35;10.27;;;3.50;;
71610;SDS011;59459;51.172;6.682;2024-01-15T11:51:06;9.27;;;3.00;;
71610;SDS011;59459;51.172;6.682;2024-01-15T11:53:33;10.57;;;2.90;;
71610;SDS011;59459;51.172;6.682;2024-01-15T11:55:59;5.85;;;2.38;;
71610;SDS011;59459;51.172;6.682;2024-01-15T11:58:26;7.70;;;2.63;;
71610;SDS011;59459;51.172;6.682;2024-01-15T12:00:52;8.20;;;2.83;;
71610;SDS011;59459;51.172;6.682;2024-01-15T12:03:17;13.05;;;3.35;;
71610;SDS011;59459;51.172;6.682;2024-01-15T12:05:45;8.80;;;2.40;;
71610;SDS011;59459;51.172;6.682;2024-01-15T12:08:10;7.60;;;2.50;;
71610;SDS011;59459;51.172;6.682;2024-01-15T12:10:39;7.68;;;2.20;;
71610;SDS011;59459;51.172;6.682;2024-01-15T12:13:12;12.93;;;4.60;;
71610;SDS011;59459;51.172;6.682;2024-01-15T12:15:38;14.15;;;4.00;;
71610;SDS011;59459;51.172;6.682;2024-01-15T12:18:06;12.45;;;3.97;;
71610;SDS011;59459;51.172;6.682;2024-01-15T12:20:32;11.38;;;3.70;;
71610;SDS011;59459;51.172;6.682;2024-01-15T12:22:57;11.70;;;4.17;;
71610;SDS011;59459;51.172;6.682;2024-01-15T12:25:23;12.03;;;4.83;;
71610;SDS011;59459;51.172;6.682;2024-01-15T12:27:49;12.13;;;4.95;;
71610;SDS011;59459;51.172;6.682;2024-01-15T12:30:14;11.93;;;4.13;;
71610;SDS011;59459;51.172;6.682;2024-01-15T12:32:40;11.07;;;4.60;;
71610;SDS011;59459;51.172;6.682;2024-01-15T12:35:07;14.13;;;5.30;;
71610;SDS011;59459;51.172;6.682;2024-01-15T12:37:32;13.67;;;5.33;;
71610;SDS011;59459;51.172;6.682;2024-01-15T12:39:58;11.53;;;4.80;;
71610;SDS011;59459;51.172;6.682;2024-01-15T12:42:24;14.88;;;5.85;;
71610;SDS011;59459;51.172;6.682;2024-01-15T12:44:49;10.93;;;4.73;;
71610;SDS011;59459;51.172;6.682;2024-01-15T12:47:14;10.67;;;4.80;;
71610;SDS011;59459;51.172;6.682;2024-01-15T12:49:42;10.82;;;4.57;;
71610;SDS011;59459;51.172;6.682;2024-01-15T12:52:08;8.27;;;3.63;;
71610;SDS011;59459;51.172;6.682;2024-01-15T12:54:33;9.63;;;4.57;;
71610;SDS011;59459;51.172;6.682;2024-01-15T12:56:58;9.80;;;4.17;;
71610;SDS011;59459;51.172;6.682;2024-01-15T12:59:24;11.83;;;4.03;;
71610;SDS011;59459;51.172;6.682;2024-01-15T13:01:49;12.40;;;4.28;;
71610;SDS011;59459;51.172;6.682;2024-01-15T13:04:24;15.13;;;4.53;;
71610;SDS011;59459;51.172;6.682;2024-01-15T13:06:50;12.87;;;4.10;;
71610;SDS011;59459;51.172;6.682;2024-01-15T13:09:15;9.43;;;3.05;;
71610;SDS011;59459;51.172;6.682;2024-01-15T13:11:40;10.30;;;3.57;;
71610;SDS011;59459;51.172;6.682;2024-01-15T13:14:06;9.30;;;3.37;;
71610;SDS011;59459;51.172;6.682;2024-01-15T13:16:31;5.78;;;2.30;;
71610;SDS011;59459;51.172;6.682;2024-01-15T13:18:56;6.57;;;2.20;;
71610;SDS011;59459;51.172;6.682;2024-01-15T13:21:22;10.70;;;2.73;;
71610;SDS011;59459;51.172;6.682;2024-01-15T13:23:47;6.90;;;2.87;;
71610;SDS011;59459;51.172;6.682;2024-01-15T13:26:12;8.43;;;2.80;;
71610;SDS011;59459;51.172;6.682;2024-01-15T13:28:38;5.68;;;2.05;;
71610;SDS011;59459;51.172;6.682;2024-01-15T13:31:03;8.30;;;2.07;;
71610;SDS011;59459;51.172;6.682;2024-01-15T13:33:29;8.20;;;2.57;;
71610;SDS011;59459;51.172;6.682;2024-01-15T13:35:54;6.13;;;1.60;;
71610;SDS011;59459;51.172;6.682;2024-01-15T13:38:20;4.90;;;1.63;;
71610;SDS011;59459;51.172;6.682;2024-01-15T13:40:45;5.17;;;1.17;;
71610;SDS011;59459;51.172;6.682;2024-01-15T13:43:11;6.10;;;1.43;;
71610;SDS011;59459;51.172;6.682;2024-01-15T13:45:36;3.80;;;1.20;;
71610;SDS011;59459;51.172;6.682;2024-01-15T13:48:02;6.47;;;2.30;;
71610;SDS011;59459;51.172;6.682;2024-01-15T13:50:30;9.60;;;2.25;;
71610;SDS011;59459;51.172;6.682;2024-01-15T13:52:55;6.70;;;2.10;;
71610;SDS011;59459;51.172;6.682;2024-01-15T13:55:21;7.73;;;2.60;;
71610;SDS011;59459;51.172;6.682;2024-01-15T13:57:46;5.57;;;1.90;;
71610;SDS011;59459;51.172;6.682;2024-01-15T14:00:11;7.37;;;2.37;;
71610;SDS011;59459;51.172;6.682;2024-01-15T14:02:37;4.33;;;1.67;;
71610;SDS011;59459;51.172;6.682;2024-01-15T14:05:02;4.68;;;1.27;;
71610;SDS011;59459;51.172;6.682;2024-01-15T14:07:27;4.97;;;1.30;;
71610;SDS011;59459;51.172;6.682;2024-01-15T14:09:52;5.50;;;1.07;;
71610;SDS011;59459;51.172;6.682;2024-01-15T14:12:18;4.40;;;1.30;;
71610;SDS011;59459;51.172;6.682;2024-01-15T14:14:43;4.60;;;1.00;;
71610;SDS011;59459;51.172;6.682;2024-01-15T14:17:08;3.80;;;1.07;;
71610;SDS011;59459;51.172;6.682;2024-01-15T14:19:33;3.33;;;1.30;;
71610;SDS011;59459;51.172;6.682;2024-01-15T14:21:59;3.67;;;1.20;;
71610;SDS011;59459;51.172;6.682;2024-01-15T14:24:24;3.80;;;1.03;;
71610;SDS011;59459;51.172;6.682;2024-01-15T14:26:49;4.10;;;1.40;;